sensor_id;sensor_type;location;lat;lon;timestamp;P1;durP1;ratioP1;P2;durP2;ratioP2
62951;SDS011;52163;52.212;-1.002;2023-04-29T00:00:19;21.00;;;14.70;;
62951;SDS011;52163;52.212;-1.002;2023-04-29T00:02:45;23.40;;;13.50;;
62951;SDS011;52163;52.212;-1.002;2023-04-29T00:05:10;21.40;;;13.30;;
62951;SDS011;52163;52.212;-1.002;2023-04-29T00:07:36;21.70;;;13.70;;
62951;SDS011;52163;52.212;-1.002;2023-04-29T00:10:01;21.00;;;13.10;;
62951;SDS011;52163;52.212;-1.002;2023-04-29T00:12:27;17.40;;;11.40;;
62951;SDS011;52163;52.212;-1.002;2023-04-29T00:14:54;19.30;;;12.30;;
62951;SDS011;52163;52.212;-1.002;2023-04-29T00:17:19;22.30;;;13.50;;
62951;SDS011;52163;52.212;-1.002;2023-04-29T00:19:45;17.90;;;12.20;;
62951;SDS011;52163;52.212;-1.002;2023-04-29T00:22:10;18.60;;;13.20;;
62951;SDS011;52163;52.212;-1.002;2023-04-29T00:24:36;18.40;;;13.30;;
62951;SDS011;52163;52.212;-1.002;2023-04-29T00:27:01;23.30;;;14.40;;
62951;SDS011;52163;52.212;-1.002;2023-04-29T00:29:27;23.60;;;14.80;;
62951;SDS011;52163;52.212;-1.002;2023-04-29T00:31:53;20.70;;;14.00;;
62951;SDS011;52163;52.212;-1.002;2023-04-29T00:34:18;21.30;;;14.30;;
62951;SDS011;52163;52.212;-1.002;2023-04-29T00:36:44;18.20;;;13.00;;
62951;SDS011;52163;52.212;-1.002;2023-04-29T00:39:09;19.40;;;13.60;;
62951;SDS011;52163;52.212;-1.002;2023-04-29T00:41:35;18.10;;;12.50;;
62951;SDS011;52163;52.212;-1.002;2023-04-29T00:44:01;18.90;;;12.90;;
62951;SDS011;52163;52.212;-1.002;2023-04-29T00:46:26;19.60;;;13.10;;
62951;SDS011;52163;52.212;-1.002;2023-04-29T00:48:52;21.00;;;13.80;;
62951;SDS011;52163;52.212;-1.002;2023-04-29T00:51:17;19.20;;;13.50;;
62951;SDS011;52163;52.212;-1.002;2023-04-29T00:53:42;21.40;;;13.20;;
62951;SDS011;52163;52.212;-1.002;2023-04-29T00:56:08;22.40;;;13.50;;
62951;SDS011;52163;52.212;-1.002;2023-04-29T00:58:35;21.40;;;14.00;;
62951;SDS011;52163;52.212;-1.002;2023-04-29T01:01:03;21.80;;;13.50;;
62951;SDS011;52163;52.212;-1.002;2023-04-29T01:03:29;18.60;;;12.90;;
62951;SDS011;52163;52.212;-1.002;2023-04-29T01:06:00;19.70;;;12.50;;
62951;SDS011;52163;52.212;-1.002;2023-04-29T01:11:22;20.40;;;13.00;;
62951;SDS011;52163;52.212;-1.002;2023-04-29T01:13:54;15.00;;;11.30;;
62951;SDS011;52163;52.212;-1.002;2023-04-29T01:16:26;22.10;;;13.10;;
62951;SDS011;52163;52.212;-1.002;2023-04-29T01:18:54;19.90;;;13.60;;
62951;SDS011;52163;52.212;-1.002;2023-04-29T01:21:23;20.90;;;14.20;;
62951;SDS011;52163;52.212;-1.002;2023-04-29T01:23:49;21.70;;;14.30;;
62951;SDS011;52163;52.212;-1.002;2023-04-29T01:26:20;16.50;;;12.70;;
62951;SDS011;52163;52.212;-1.002;2023-04-29T01:28:53;17.60;;;12.40;;
62951;SDS011;52163;52.212;-1.002;2023-04-29T01:31:40;18.50;;;12.90;;
62951;SDS011;52163;52.212;-1.002;2023-04-29T01:45:18;24.60;;;16.30;;
62951;SDS011;52163;52.212;-1.002;2023-04-29T01:47:46;21.60;;;15.70;;
62951;SDS011;52163;52.212;-1.002;2023-04-29T01:50:16;22.10;;;15.30;;
62951;SDS011;52163;52.212;-1.002;2023-04-29T01:52:42;23.40;;;14.80;;
62951;SDS011;52163;52.212;-1.002;2023-04-29T01:55:07;21.50;;;14.60;;
62951;SDS011;52163;52.212;-1.002;2023-04-29T01:57:35;22.20;;;15.20;;
62951;SDS011;52163;52.212;-1.002;2023-04-29T02:00:00;24.60;;;15.10;;
62951;SDS011;52163;52.212;-1.002;2023-04-29T02:02:26;26.60;;;16.90;;
62951;SDS011;52163;52.212;-1.002;2023-04-29T02:04:51;22.60;;;14.90;;
62951;SDS011;52163;52.212;-1.002;2023-04-29T02:07:17;23.30;;;15.50;;
62951;SDS011;52163;52.212;-1.002;2023-04-29T02:09:42;17.30;;;13.10;;
62951;SDS011;52163;52.212;-1.002;2023-04-29T02:12:07;16.40;;;12.60;;
62951;SDS011;52163;52.212;-1.002;2023-04-29T02:14:33;18.70;;;13.40;;
62951;SDS011;52163;52.212;-1.002;2023-04-29T02:16:59;19.50;;;13.20;;
62951;SDS011;52163;52.212;-1.002;2023-04-29T02:19:25;20.60;;;12.70;;
62951;SDS011;52163;52.212;-1.002;2023-04-29T02:21:50;21.40;;;14.90;;
62951;SDS011;52163;52.212;-1.002;2023-04-29T02:24:16;20.80;;;15.00;;
62951;SDS011;52163;52.212;-1.002;2023-04-29T02:26:41;22.90;;;16.00;;
62951;SDS011;52163;52.212;-1.002;2023-04-29T02:29:06;20.40;;;14.20;;
62951;SDS011;52163;52.212;-1.002;2023-04-29T02:31:32;20.00;;;13.40;;
62951;SDS011;52163;52.212;-1.002;2023-04-29T02:33:57;18.00;;;13.10;;
62951;SDS011;52163;52.212;-1.002;2023-04-29T02:36:24;20.40;;;12.50;;
62951;SDS011;52163;52.212;-1.002;2023-04-29T02:38:50;18.70;;;12.90;;
62951;SDS011;52163;52.212;-1.002;2023-04-29T02:41:19;16.10;;;11.90;;
62951;SDS011;52163;52.212;-1.002;2023-04-29T02:43:45;18.00;;;11.00;;
62951;SDS011;52163;52.212;-1.002;2023-04-29T02:46:13;18.40;;;11.30;;
62951;SDS011;52163;52.212;-1.002;2023-04-29T02:48:38;18.10;;;12.30;;
62951;SDS011;52163;52.212;-1.002;2023-04-29T02:51:04;17.30;;;11.90;;
62951;SDS011;52163;52.212;-1.002;2023-04-29T02:53:30;16.60;;;12.00;;
62951;SDS011;52163;52.212;-1.002;2023-04-29T02:55:56;19.10;;;12.70;;
62951;SDS011;52163;52.212;-1.002;2023-04-29T02:58:22;18.50;;;12.60;;
62951;SDS011;52163;52.212;-1.002;2023-04-29T03:00:47;17.70;;;12.30;;
62951;SDS011;52163;52.212;-1.002;2023-04-29T03:03:13;18.20;;;12.60;;
62951;SDS011;52163;52.212;-1.002;2023-04-29T03:05:38;19.80;;;13.40;;
62951;SDS011;52163;52.212;-1.002;2023-04-29T03:08:04;21.50;;;13.60;;
62951;SDS011;52163;52.212;-1.002;2023-04-29T03:10:29;21.00;;;14.40;;
62951;SDS011;52163;52.212;-1.002;2023-04-29T03:12:55;21.80;;;14.00;;
62951;SDS011;52163;52.212;-1.002;2023-04-29T03:15:20;21.90;;;14.30;;
62951;SDS011;52163;52.212;-1.002;2023-04-29T03:17:46;25.80;;;16.00;;
62951;SDS011;52163;52.212;-1.002;2023-04-29T03:20:12;20.60;;;13.60;;
62951;SDS011;52163;52.212;-1.002;2023-04-29T03:22:38;20.00;;;14.60;;
62951;SDS011;52163;52.212;-1.002;2023-04-29T03:25:04;19.20;;;13.60;;
62951;SDS011;52163;52.212;-1.002;2023-04-29T03:27:30;20.90;;;13.50;;
62951;SDS011;52163;52.212;-1.002;2023-04-29T03:29:56;21.40;;;15.00;;
62951;SDS011;52163;52.212;-1.002;2023-04-29T03:32:21;22.10;;;13.80;;
62951;SDS011;52163;52.212;-1.002;2023-04-29T03:34:47;21.70;;;14.00;;
62951;SDS011;52163;52.212;-1.002;2023-04-29T03:37:13;18.80;;;13.10;;
62951;SDS011;52163;52.212;-1.002;2023-04-29T03:39:40;19.30;;;13.00;;
62951;SDS011;52163;52.212;-1.002;2023-04-29T03:42:06;21.90;;;14.10;;
62951;SDS011;52163;52.212;-1.002;2023-04-29T03:44:32;19.70;;;13.20;;
62951;SDS011;52163;52.212;-1.002;2023-04-29T03:46:57;21.40;;;13.80;;
62951;SDS011;52163;52.212;-1.002;2023-04-29T03:49:22;19.10;;;13.50;;
62951;SDS011;52163;52.212;-1.002;2023-04-29T03:51:48;17.40;;;12.50;;
62951;SDS011;52163;52.212;-1.002;2023-04-29T03:54:13;24.20;;;16.10;;
62951;SDS011;52163;52.212;-1.002;2023-04-29T03:56:39;23.10;;;15.40;;
62951;SDS011;52163;52.212;-1.002;2023-04-29T03:59:05;23.10;;;15.70;;
62951;SDS011;52163;52.212;-1.002;2023-04-29T04:01:30;23.70;;;15.20;;
62951;SDS011;52163;52.212;-1.002;2023-04-29T04:03:56;18.40;;;13.00;;
62951;SDS011;52163;52.212;-1.002;2023-04-29T04:06:22;18.30;;;13.90;;
62951;SDS011;52163;52.212;-1.002;2023-04-29T04:08:47;20.80;;;14.60;;
62951;SDS011;52163;52.212;-1.002;2023-04-29T04:11:13;20.20;;;13.90;;
62951;SDS011;52163;52.212;-1.002;2023-04-29T04:13:42;19.00;;;13.00;;
62951;SDS011;52163;52.212;-1.002;2023-04-29T04:16:08;22.10;;;14.50;;
62951;SDS011;52163;52.212;-1.002;2023-04-29T04:18:35;20.20;;;14.40;;
62951;SDS011;52163;52.212;-1.002;2023-04-29T04:21:08;22.10;;;14.30;;
62951;SDS011;52163;52.212;-1.002;2023-04-29T04:23:35;21.40;;;14.30;;
62951;SDS011;52163;52.212;-1.002;2023-04-29T04:26:02;18.60;;;13.00;;
62951;SDS011;52163;52.212;-1.002;2023-04-29T04:28:27;19.60;;;13.80;;
62951;SDS011;52163;52.212;-1.002;2023-04-29T04:30:53;19.00;;;13.50;;
62951;SDS011;52163;52.212;-1.002;2023-04-29T04:33:18;18.30;;;12.80;;
62951;SDS011;52163;52.212;-1.002;2023-04-29T04:35:44;19.10;;;12.50;;
62951;SDS011;52163;52.212;-1.002;2023-04-29T04:38:09;18.00;;;12.00;;
62951;SDS011;52163;52.212;-1.002;2023-04-29T04:40:39;20.00;;;12.50;;
62951;SDS011;52163;52.212;-1.002;2023-04-29T04:43:06;17.90;;;11.70;;
62951;SDS011;52163;52.212;-1.002;2023-04-29T04:45:32;20.00;;;12.20;;
62951;SDS011;52163;52.212;-1.002;2023-04-29T04:47:58;19.20;;;13.40;;
62951;SDS011;52163;52.212;-1.002;2023-04-29T04:50:26;16.50;;;11.70;;
62951;SDS011;52163;52.212;-1.002;2023-04-29T04:52:53;17.50;;;12.10;;
62951;SDS011;52163;52.212;-1.002;2023-04-29T04:55:22;17.30;;;11.20;;
62951;SDS011;52163;52.212;-1.002;2023-04-29T04:57:48;18.80;;;12.20;;
62951;SDS011;52163;52.212;-1.002;2023-04-29T05:00:14;17.10;;;12.30;;
62951;SDS011;52163;52.212;-1.002;2023-04-29T05:02:39;17.10;;;12.10;;
62951;SDS011;52163;52.212;-1.002;2023-04-29T05:05:05;20.60;;;13.00;;
62951;SDS011;52163;52.212;-1.002;2023-04-29T05:07:32;21.30;;;14.00;;
62951;SDS011;52163;52.212;-1.002;2023-04-29T05:10:00;20.70;;;13.60;;
62951;SDS011;52163;52.212;-1.002;2023-04-29T05:12:26;19.40;;;13.40;;
62951;SDS011;52163;52.212;-1.002;2023-04-29T05:14:55;18.20;;;12.20;;
62951;SDS011;52163;52.212;-1.002;2023-04-29T05:17:20;20.20;;;13.30;;
62951;SDS011;52163;52.212;-1.002;2023-04-29T05:19:46;17.30;;;12.00;;
62951;SDS011;52163;52.212;-1.002;2023-04-29T05:22:11;18.70;;;13.60;;
62951;SDS011;52163;52.212;-1.002;2023-04-29T05:24:37;18.50;;;12.90;;
62951;SDS011;52163;52.212;-1.002;2023-04-29T05:27:02;18.70;;;12.60;;
62951;SDS011;52163;52.212;-1.002;2023-04-29T05:29:28;20.20;;;13.40;;
62951;SDS011;52163;52.212;-1.002;2023-04-29T05:31:54;23.40;;;14.20;;
62951;SDS011;52163;52.212;-1.002;2023-04-29T05:34:20;22.20;;;14.70;;
62951;SDS011;52163;52.212;-1.002;2023-04-29T05:36:45;20.20;;;13.90;;
62951;SDS011;52163;52.212;-1.002;2023-04-29T05:39:10;19.70;;;13.80;;
62951;SDS011;52163;52.212;-1.002;2023-04-29T05:41:36;22.50;;;13.90;;
62951;SDS011;52163;52.212;-1.002;2023-04-29T05:44:01;20.80;;;13.70;;
62951;SDS011;52163;52.212;-1.002;2023-04-29T05:46:27;22.80;;;14.50;;
62951;SDS011;52163;52.212;-1.002;2023-04-29T05:48:52;22.30;;;14.90;;
62951;SDS011;52163;52.212;-1.002;2023-04-29T05:51:17;19.50;;;13.40;;
62951;SDS011;52163;52.212;-1.002;2023-04-29T05:53:43;18.60;;;13.40;;
62951;SDS011;52163;52.212;-1.002;2023-04-29T05:56:08;22.80;;;14.60;;
62951;SDS011;52163;52.212;-1.002;2023-04-29T05:58:34;21.40;;;14.30;;
62951;SDS011;52163;52.212;-1.002;2023-04-29T06:01:00;21.40;;;14.10;;
62951;SDS011;52163;52.212;-1.002;2023-04-29T06:03:25;20.00;;;14.40;;
62951;SDS011;52163;52.212;-1.002;2023-04-29T06:05:51;22.00;;;14.30;;
62951;SDS011;52163;52.212;-1.002;2023-04-29T06:08:18;24.10;;;14.50;;
62951;SDS011;52163;52.212;-1.002;2023-04-29T06:10:43;24.10;;;15.50;;
62951;SDS011;52163;52.212;-1.002;2023-04-29T06:13:10;21.40;;;15.10;;
62951;SDS011;52163;52.212;-1.002;2023-04-29T06:15:35;21.40;;;15.30;;
62951;SDS011;52163;52.212;-1.002;2023-04-29T06:18:01;20.50;;;14.00;;
62951;SDS011;52163;52.212;-1.002;2023-04-29T06:20:27;22.00;;;14.00;;
62951;SDS011;52163;52.212;-1.002;2023-04-29T06:22:52;18.30;;;12.80;;
62951;SDS011;52163;52.212;-1.002;2023-04-29T06:25:17;18.20;;;12.60;;
62951;SDS011;52163;52.212;-1.002;2023-04-29T06:27:43;18.30;;;13.60;;
62951;SDS011;52163;52.212;-1.002;2023-04-29T06:30:08;18.20;;;13.30;;
62951;SDS011;52163;52.212;-1.002;2023-04-29T06:32:35;17.50;;;12.70;;
62951;SDS011;52163;52.212;-1.002;2023-04-29T06:35:01;19.80;;;13.70;;
62951;SDS011;52163;52.212;-1.002;2023-04-29T06:37:27;20.00;;;14.30;;
62951;SDS011;52163;52.212;-1.002;2023-04-29T06:39:52;20.10;;;14.30;;
62951;SDS011;52163;52.212;-1.002;2023-04-29T06:42:18;23.80;;;15.30;;
62951;SDS011;52163;52.212;-1.002;2023-04-29T06:44:43;21.10;;;13.90;;
62951;SDS011;52163;52.212;-1.002;2023-04-29T06:47:09;21.90;;;15.00;;
62951;SDS011;52163;52.212;-1.002;2023-04-29T06:49:34;20.20;;;14.90;;
62951;SDS011;52163;52.212;-1.002;2023-04-29T06:52:00;21.80;;;15.80;;
62951;SDS011;52163;52.212;-1.002;2023-04-29T06:54:26;22.00;;;15.00;;
62951;SDS011;52163;52.212;-1.002;2023-04-29T06:56:52;21.80;;;16.00;;
62951;SDS011;52163;52.212;-1.002;2023-04-29T06:59:18;24.00;;;16.60;;
62951;SDS011;52163;52.212;-1.002;2023-04-29T07:01:43;21.30;;;16.10;;
62951;SDS011;52163;52.212;-1.002;2023-04-29T07:04:09;22.80;;;16.40;;
62951;SDS011;52163;52.212;-1.002;2023-04-29T07:06:34;20.60;;;15.70;;
62951;SDS011;52163;52.212;-1.002;2023-04-29T07:09:00;20.50;;;15.50;;
62951;SDS011;52163;52.212;-1.002;2023-04-29T07:11:26;21.40;;;15.40;;
62951;SDS011;52163;52.212;-1.002;2023-04-29T07:13:52;21.10;;;14.30;;
62951;SDS011;52163;52.212;-1.002;2023-04-29T07:16:17;18.70;;;13.40;;
62951;SDS011;52163;52.212;-1.002;2023-04-29T07:18:44;20.00;;;13.50;;
62951;SDS011;52163;52.212;-1.002;2023-04-29T07:21:09;20.80;;;14.70;;
62951;SDS011;52163;52.212;-1.002;2023-04-29T07:23:35;25.30;;;15.50;;
62951;SDS011;52163;52.212;-1.002;2023-04-29T07:28:36;18.70;;;14.20;;
62951;SDS011;52163;52.212;-1.002;2023-04-29T07:31:01;20.40;;;14.80;;
62951;SDS011;52163;52.212;-1.002;2023-04-29T07:33:27;21.00;;;15.00;;
62951;SDS011;52163;52.212;-1.002;2023-04-29T07:35:52;19.10;;;14.40;;
62951;SDS011;52163;52.212;-1.002;2023-04-29T07:38:18;20.20;;;14.20;;
62951;SDS011;52163;52.212;-1.002;2023-04-29T07:40:45;20.20;;;14.40;;
62951;SDS011;52163;52.212;-1.002;2023-04-29T07:43:10;20.20;;;13.30;;
62951;SDS011;52163;52.212;-1.002;2023-04-29T07:45:37;20.20;;;15.90;;
62951;SDS011;52163;52.212;-1.002;2023-04-29T07:48:04;21.60;;;14.40;;
62951;SDS011;52163;52.212;-1.002;2023-04-29T07:50:32;19.00;;;13.70;;
62951;SDS011;52163;52.212;-1.002;2023-04-29T07:52:58;19.50;;;14.00;;
62951;SDS011;52163;52.212;-1.002;2023-04-29T07:55:26;15.70;;;12.40;;
62951;SDS011;52163;52.212;-1.002;2023-04-29T07:57:53;17.30;;;13.50;;
62951;SDS011;52163;52.212;-1.002;2023-04-29T08:00:20;19.10;;;14.00;;
62951;SDS011;52163;52.212;-1.002;2023-04-29T08:02:46;18.20;;;14.10;;
62951;SDS011;52163;52.212;-1.002;2023-04-29T08:05:15;17.00;;;13.60;;
62951;SDS011;52163;52.212;-1.002;2023-04-29T08:07:40;16.50;;;13.10;;
62951;SDS011;52163;52.212;-1.002;2023-04-29T08:10:06;16.90;;;13.40;;
62951;SDS011;52163;52.212;-1.002;2023-04-29T08:12:32;16.90;;;13.40;;
62951;SDS011;52163;52.212;-1.002;2023-04-29T08:14:58;16.40;;;13.20;;
62951;SDS011;52163;52.212;-1.002;2023-04-29T08:17:23;17.40;;;13.80;;
62951;SDS011;52163;52.212;-1.002;2023-04-29T08:19:49;19.00;;;14.70;;
62951;SDS011;52163;52.212;-1.002;2023-04-29T08:22:14;19.70;;;15.10;;
62951;SDS011;52163;52.212;-1.002;2023-04-29T08:24:40;18.00;;;14.90;;
62951;SDS011;52163;52.212;-1.002;2023-04-29T08:27:07;16.70;;;13.40;;
62951;SDS011;52163;52.212;-1.002;2023-04-29T08:29:33;19.70;;;16.20;;
62951;SDS011;52163;52.212;-1.002;2023-04-29T08:31:59;19.00;;;14.80;;
62951;SDS011;52163;52.212;-1.002;2023-04-29T08:34:25;19.40;;;14.90;;
62951;SDS011;52163;52.212;-1.002;2023-04-29T08:36:50;16.80;;;13.30;;
62951;SDS011;52163;52.212;-1.002;2023-04-29T08:39:16;18.30;;;14.90;;
62951;SDS011;52163;52.212;-1.002;2023-04-29T08:41:41;20.70;;;16.60;;
62951;SDS011;52163;52.212;-1.002;2023-04-29T08:44:09;19.30;;;14.80;;
62951;SDS011;52163;52.212;-1.002;2023-04-29T08:46:36;19.10;;;14.70;;
62951;SDS011;52163;52.212;-1.002;2023-04-29T08:49:03;20.40;;;16.10;;
62951;SDS011;52163;52.212;-1.002;2023-04-29T08:51:29;19.50;;;14.80;;
62951;SDS011;52163;52.212;-1.002;2023-04-29T08:53:56;19.40;;;15.90;;
62951;SDS011;52163;52.212;-1.002;2023-04-29T08:56:21;18.60;;;15.10;;
62951;SDS011;52163;52.212;-1.002;2023-04-29T08:58:48;18.40;;;15.30;;
62951;SDS011;52163;52.212;-1.002;2023-04-29T09:01:18;19.80;;;15.70;;
62951;SDS011;52163;52.212;-1.002;2023-04-29T09:06:38;19.80;;;15.80;;
62951;SDS011;52163;52.212;-1.002;2023-04-29T09:09:03;22.00;;;16.00;;
62951;SDS011;52163;52.212;-1.002;2023-04-29T09:11:29;20.10;;;16.30;;
62951;SDS011;52163;52.212;-1.002;2023-04-29T09:13:59;21.60;;;15.90;;
62951;SDS011;52163;52.212;-1.002;2023-04-29T09:16:26;21.80;;;16.30;;
62951;SDS011;52163;52.212;-1.002;2023-04-29T09:18:52;21.60;;;16.30;;
62951;SDS011;52163;52.212;-1.002;2023-04-29T09:21:20;18.90;;;15.00;;
62951;SDS011;52163;52.212;-1.002;2023-04-29T09:23:47;19.90;;;14.50;;
62951;SDS011;52163;52.212;-1.002;2023-04-29T09:26:15;19.30;;;15.10;;
62951;SDS011;52163;52.212;-1.002;2023-04-29T09:28:41;27.30;;;16.00;;
62951;SDS011;52163;52.212;-1.002;2023-04-29T09:31:10;19.70;;;15.00;;
62951;SDS011;52163;52.212;-1.002;2023-04-29T09:33:49;18.00;;;14.60;;
62951;SDS011;52163;52.212;-1.002;2023-04-29T09:39:02;20.90;;;16.40;;
62951;SDS011;52163;52.212;-1.002;2023-04-29T09:41:30;19.90;;;14.00;;
62951;SDS011;52163;52.212;-1.002;2023-04-29T09:44:02;17.70;;;13.40;;
62951;SDS011;52163;52.212;-1.002;2023-04-29T09:46:32;19.70;;;15.30;;
62951;SDS011;52163;52.212;-1.002;2023-04-29T09:48:58;21.70;;;15.70;;
62951;SDS011;52163;52.212;-1.002;2023-04-29T09:51:24;22.60;;;16.30;;
62951;SDS011;52163;52.212;-1.002;2023-04-29T09:53:49;21.60;;;16.70;;
62951;SDS011;52163;52.212;-1.002;2023-04-29T09:56:15;18.50;;;14.50;;
62951;SDS011;52163;52.212;-1.002;2023-04-29T09:58:40;20.20;;;15.60;;
62951;SDS011;52163;52.212;-1.002;2023-04-29T10:01:07;18.80;;;15.00;;
62951;SDS011;52163;52.212;-1.002;2023-04-29T10:03:36;20.60;;;15.20;;
62951;SDS011;52163;52.212;-1.002;2023-04-29T10:06:03;23.20;;;16.40;;
62951;SDS011;52163;52.212;-1.002;2023-04-29T10:08:30;18.40;;;14.20;;
62951;SDS011;52163;52.212;-1.002;2023-04-29T10:10:59;18.80;;;14.10;;
62951;SDS011;52163;52.212;-1.002;2023-04-29T10:13:26;16.10;;;11.80;;
62951;SDS011;52163;52.212;-1.002;2023-04-29T10:18:48;18.40;;;14.00;;
62951;SDS011;52163;52.212;-1.002;2023-04-29T10:21:17;18.70;;;14.50;;
62951;SDS011;52163;52.212;-1.002;2023-04-29T10:23:48;17.90;;;14.70;;
62951;SDS011;52163;52.212;-1.002;2023-04-29T10:26:14;16.90;;;13.10;;
62951;SDS011;52163;52.212;-1.002;2023-04-29T10:28:43;14.40;;;12.20;;
62951;SDS011;52163;52.212;-1.002;2023-04-29T10:31:11;17.90;;;12.30;;
62951;SDS011;52163;52.212;-1.002;2023-04-29T10:33:41;15.40;;;12.70;;
62951;SDS011;52163;52.212;-1.002;2023-04-29T10:36:12;16.80;;;13.10;;
62951;SDS011;52163;52.212;-1.002;2023-04-29T10:38:39;16.20;;;13.40;;
62951;SDS011;52163;52.212;-1.002;2023-04-29T10:41:13;16.10;;;11.70;;
62951;SDS011;52163;52.212;-1.002;2023-04-29T10:43:50;12.80;;;11.00;;
62951;SDS011;52163;52.212;-1.002;2023-04-29T10:46:17;14.10;;;9.80;;
62951;SDS011;52163;52.212;-1.002;2023-04-29T10:48:48;13.80;;;10.30;;
62951;SDS011;52163;52.212;-1.002;2023-04-29T10:56:41;13.20;;;9.90;;
62951;SDS011;52163;52.212;-1.002;2023-04-29T10:59:12;11.60;;;9.40;;
62951;SDS011;52163;52.212;-1.002;2023-04-29T11:01:39;12.40;;;9.70;;
62951;SDS011;52163;52.212;-1.002;2023-04-29T11:04:09;12.50;;;9.80;;
62951;SDS011;52163;52.212;-1.002;2023-04-29T11:09:02;13.00;;;9.90;;
62951;SDS011;52163;52.212;-1.002;2023-04-29T11:17:08;11.90;;;9.70;;
62951;SDS011;52163;52.212;-1.002;2023-04-29T11:19:35;11.80;;;9.00;;
62951;SDS011;52163;52.212;-1.002;2023-04-29T11:27:26;11.10;;;8.20;;
62951;SDS011;52163;52.212;-1.002;2023-04-29T11:29:56;12.00;;;8.00;;
62951;SDS011;52163;52.212;-1.002;2023-04-29T11:32:23;9.70;;;7.10;;
62951;SDS011;52163;52.212;-1.002;2023-04-29T11:35:08;8.90;;;6.80;;
62951;SDS011;52163;52.212;-1.002;2023-04-29T11:37:36;11.20;;;8.00;;
62951;SDS011;52163;52.212;-1.002;2023-04-29T11:40:02;9.60;;;7.80;;
62951;SDS011;52163;52.212;-1.002;2023-04-29T11:42:29;12.20;;;8.60;;
62951;SDS011;52163;52.212;-1.002;2023-04-29T11:44:54;10.10;;;8.60;;
62951;SDS011;52163;52.212;-1.002;2023-04-29T11:47:27;8.80;;;7.60;;
62951;SDS011;52163;52.212;-1.002;2023-04-29T11:50:00;10.00;;;7.80;;
62951;SDS011;52163;52.212;-1.002;2023-04-29T11:52:27;9.30;;;7.80;;
62951;SDS011;52163;52.212;-1.002;2023-04-29T11:54:53;11.10;;;8.30;;
62951;SDS011;52163;52.212;-1.002;2023-04-29T11:57:18;7.90;;;6.90;;
62951;SDS011;52163;52.212;-1.002;2023-04-29T11:59:44;8.80;;;7.00;;
62951;SDS011;52163;52.212;-1.002;2023-04-29T12:02:11;9.60;;;7.40;;
62951;SDS011;52163;52.212;-1.002;2023-04-29T12:04:47;8.90;;;7.70;;
62951;SDS011;52163;52.212;-1.002;2023-04-29T12:07:15;8.40;;;7.30;;
62951;SDS011;52163;52.212;-1.002;2023-04-29T12:09:42;8.70;;;7.40;;
62951;SDS011;52163;52.212;-1.002;2023-04-29T12:12:09;9.70;;;7.30;;
62951;SDS011;52163;52.212;-1.002;2023-04-29T12:14:34;7.10;;;5.80;;
62951;SDS011;52163;52.212;-1.002;2023-04-29T12:17:01;7.50;;;5.90;;
62951;SDS011;52163;52.212;-1.002;2023-04-29T12:19:27;6.60;;;5.00;;
62951;SDS011;52163;52.212;-1.002;2023-04-29T12:21:53;9.10;;;5.90;;
62951;SDS011;52163;52.212;-1.002;2023-04-29T12:24:22;6.50;;;5.40;;
62951;SDS011;52163;52.212;-1.002;2023-04-29T12:26:48;7.90;;;6.40;;
62951;SDS011;52163;52.212;-1.002;2023-04-29T12:29:14;7.80;;;6.00;;
62951;SDS011;52163;52.212;-1.002;2023-04-29T12:31:39;7.20;;;6.10;;
62951;SDS011;52163;52.212;-1.002;2023-04-29T12:34:06;8.50;;;6.70;;
62951;SDS011;52163;52.212;-1.002;2023-04-29T12:36:31;7.60;;;5.90;;
62951;SDS011;52163;52.212;-1.002;2023-04-29T12:38:58;7.90;;;5.60;;
62951;SDS011;52163;52.212;-1.002;2023-04-29T12:44:22;7.90;;;6.40;;
62951;SDS011;52163;52.212;-1.002;2023-04-29T12:46:48;7.50;;;5.70;;
62951;SDS011;52163;52.212;-1.002;2023-04-29T12:49:13;7.50;;;6.50;;
62951;SDS011;52163;52.212;-1.002;2023-04-29T12:51:42;8.70;;;6.30;;
62951;SDS011;52163;52.212;-1.002;2023-04-29T12:54:08;5.80;;;5.20;;
62951;SDS011;52163;52.212;-1.002;2023-04-29T12:56:34;6.80;;;4.80;;
62951;SDS011;52163;52.212;-1.002;2023-04-29T12:59:06;6.60;;;5.00;;
62951;SDS011;52163;52.212;-1.002;2023-04-29T13:01:32;6.80;;;5.40;;
62951;SDS011;52163;52.212;-1.002;2023-04-29T13:03:58;7.20;;;5.50;;
62951;SDS011;52163;52.212;-1.002;2023-04-29T13:06:23;8.30;;;5.50;;
62951;SDS011;52163;52.212;-1.002;2023-04-29T13:08:49;7.80;;;6.00;;
62951;SDS011;52163;52.212;-1.002;2023-04-29T13:11:16;7.70;;;5.80;;
62951;SDS011;52163;52.212;-1.002;2023-04-29T13:13:41;6.90;;;5.90;;
62951;SDS011;52163;52.212;-1.002;2023-04-29T13:16:07;7.40;;;6.60;;
62951;SDS011;52163;52.212;-1.002;2023-04-29T13:18:33;7.60;;;5.50;;
62951;SDS011;52163;52.212;-1.002;2023-04-29T13:20:59;5.90;;;5.20;;
62951;SDS011;52163;52.212;-1.002;2023-04-29T13:23:25;7.10;;;5.20;;
62951;SDS011;52163;52.212;-1.002;2023-04-29T13:25:50;8.00;;;5.90;;
62951;SDS011;52163;52.212;-1.002;2023-04-29T13:28:16;7.40;;;5.40;;
62951;SDS011;52163;52.212;-1.002;2023-04-29T13:30:41;7.60;;;5.90;;
62951;SDS011;52163;52.212;-1.002;2023-04-29T13:33:07;6.50;;;5.70;;
62951;SDS011;52163;52.212;-1.002;2023-04-29T13:35:32;7.90;;;5.80;;
62951;SDS011;52163;52.212;-1.002;2023-04-29T13:38:00;7.60;;;5.30;;
62951;SDS011;52163;52.212;-1.002;2023-04-29T13:40:26;6.30;;;5.10;;
62951;SDS011;52163;52.212;-1.002;2023-04-29T13:42:52;6.80;;;4.70;;
62951;SDS011;52163;52.212;-1.002;2023-04-29T13:45:17;6.80;;;5.20;;
62951;SDS011;52163;52.212;-1.002;2023-04-29T13:47:42;8.20;;;5.30;;
62951;SDS011;52163;52.212;-1.002;2023-04-29T13:50:09;6.30;;;4.50;;
62951;SDS011;52163;52.212;-1.002;2023-04-29T13:52:35;5.20;;;4.70;;
62951;SDS011;52163;52.212;-1.002;2023-04-29T13:55:00;6.10;;;4.60;;
62951;SDS011;52163;52.212;-1.002;2023-04-29T13:57:26;5.80;;;4.10;;
62951;SDS011;52163;52.212;-1.002;2023-04-29T13:59:51;4.30;;;3.50;;
62951;SDS011;52163;52.212;-1.002;2023-04-29T14:02:19;7.00;;;4.20;;
62951;SDS011;52163;52.212;-1.002;2023-04-29T14:04:45;5.00;;;4.00;;
62951;SDS011;52163;52.212;-1.002;2023-04-29T14:07:11;6.00;;;4.60;;
62951;SDS011;52163;52.212;-1.002;2023-04-29T14:09:37;5.60;;;4.30;;
62951;SDS011;52163;52.212;-1.002;2023-04-29T14:12:04;6.20;;;4.70;;
62951;SDS011;52163;52.212;-1.002;2023-04-29T14:14:29;5.00;;;4.10;;
62951;SDS011;52163;52.212;-1.002;2023-04-29T14:16:55;6.80;;;4.20;;
62951;SDS011;52163;52.212;-1.002;2023-04-29T14:19:20;5.40;;;4.40;;
62951;SDS011;52163;52.212;-1.002;2023-04-29T14:21:46;5.40;;;4.00;;
62951;SDS011;52163;52.212;-1.002;2023-04-29T14:24:11;5.40;;;4.70;;
62951;SDS011;52163;52.212;-1.002;2023-04-29T14:26:36;12.80;;;8.90;;
62951;SDS011;52163;52.212;-1.002;2023-04-29T14:29:02;8.50;;;6.30;;
62951;SDS011;52163;52.212;-1.002;2023-04-29T14:31:28;7.80;;;5.40;;
62951;SDS011;52163;52.212;-1.002;2023-04-29T14:33:55;8.30;;;6.60;;
62951;SDS011;52163;52.212;-1.002;2023-04-29T14:36:21;7.40;;;5.80;;
62951;SDS011;52163;52.212;-1.002;2023-04-29T14:38:47;6.30;;;5.20;;
62951;SDS011;52163;52.212;-1.002;2023-04-29T14:41:12;6.40;;;4.70;;
62951;SDS011;52163;52.212;-1.002;2023-04-29T14:43:38;8.60;;;6.20;;
62951;SDS011;52163;52.212;-1.002;2023-04-29T14:46:03;6.00;;;4.40;;
62951;SDS011;52163;52.212;-1.002;2023-04-29T14:48:29;5.90;;;4.40;;
62951;SDS011;52163;52.212;-1.002;2023-04-29T14:50:55;6.80;;;5.30;;
62951;SDS011;52163;52.212;-1.002;2023-04-29T14:53:20;6.70;;;4.30;;
62951;SDS011;52163;52.212;-1.002;2023-04-29T14:55:46;4.60;;;3.30;;
62951;SDS011;52163;52.212;-1.002;2023-04-29T14:58:14;6.40;;;4.20;;